Terminal Aerodrome Forecast
Issued by NWS Bismarck, ND

Home | Current Version | Previous Version | Graphics & Text | Print | Product List | Glossary On
Versions: 1 2 3 4 5 6 7 8 9 10 11 12 13 14 15 16 17 18 19 20 21 22
000
FTUS43 KBIS 061734
TAFISN
TAF
KISN 061734Z 0618/0718 34004KT 6SM FU SCT045 BKN100
     FM070000 VRB03KT 4SM FU SKC
     FM070900 14004KT 3SM FU SKC
     FM071500 19008KT 6SM FU SKC=

USA.gov is the U.S. government's official web portal to all federal, state and local government web resources and services.